createdAt,value
2023-01-21T10:39:07.377Z,7.75
2023-01-21T10:40:06.709Z,7.75
2023-01-21T10:41:06.702Z,7.76
2023-01-21T10:42:06.682Z,7.76
2023-01-21T10:43:06.700Z,7.79
2023-01-21T10:44:06.655Z,7.87
2023-01-21T10:45:06.701Z,7.88
2023-01-21T10:46:06.688Z,7.94
2023-01-21T10:47:06.612Z,7.87
2023-01-21T10:48:06.696Z,7.87
2023-01-21T10:49:06.695Z,7.90
2023-01-21T10:50:06.622Z,7.94
2023-01-21T10:51:06.945Z,7.88
2023-01-21T10:52:06.537Z,8.01
2023-01-21T10:53:06.556Z,7.90
2023-01-21T10:54:06.565Z,8.00
2023-01-21T10:55:06.568Z,7.93
2023-01-21T10:56:06.562Z,7.98
2023-01-21T10:57:06.571Z,7.90
2023-01-21T10:58:06.490Z,7.90
2023-01-21T10:59:06.488Z,7.98
2023-01-21T11:00:06.532Z,7.97
2023-01-21T11:01:06.514Z,8.03
2023-01-21T11:02:06.551Z,8.08
2023-01-21T11:03:06.495Z,8.00
2023-01-21T11:04:06.513Z,8.05
2023-01-21T11:05:06.415Z,8.08
2023-01-21T11:06:06.426Z,8.05
2023-01-21T11:07:06.446Z,8.03
2023-01-21T11:08:06.442Z,8.13
2023-01-21T11:09:06.684Z,8.20
2023-01-21T11:10:06.338Z,8.10
2023-01-21T11:11:06.367Z,8.16
2023-01-21T11:12:06.364Z,8.13
2023-01-21T11:13:06.331Z,8.10
2023-01-21T11:14:06.384Z,8.23
2023-01-21T11:15:06.394Z,8.20
2023-01-21T11:16:06.339Z,8.27
2023-01-21T11:17:06.302Z,8.27
2023-01-21T11:18:06.283Z,8.33
2023-01-21T11:19:06.275Z,8.30
2023-01-21T11:20:06.264Z,8.33
2023-01-21T11:21:06.263Z,8.26
2023-01-21T11:22:06.282Z,8.28
2023-01-21T11:23:06.229Z,8.26
2023-01-21T11:24:06.234Z,8.26
2023-01-21T11:25:06.254Z,8.27
2023-01-21T11:26:07.301Z,8.28
2023-01-21T11:27:06.277Z,8.33
2023-01-21T11:28:06.202Z,8.33
2023-01-21T11:29:07.109Z,8.33
2023-01-21T11:30:20.827Z,8.33
2023-01-21T11:31:07.215Z,8.31
2023-01-21T11:32:06.360Z,8.33
2023-01-21T11:33:06.263Z,8.36
2023-01-21T11:34:06.093Z,8.28
2023-01-21T11:35:06.104Z,8.33
2023-01-21T11:36:06.041Z,8.34
2023-01-21T11:37:06.057Z,8.31
2023-01-21T11:38:06.044Z,8.31
2023-01-21T11:39:06.112Z,8.36
2023-01-21T11:40:06.024Z,8.33
2023-01-21T11:41:06.041Z,8.30
2023-01-21T11:42:05.975Z,8.26
2023-01-21T11:43:05.985Z,8.27
2023-01-21T11:44:05.996Z,8.27
2023-01-21T11:45:06.045Z,8.26
2023-01-21T11:46:05.976Z,8.24
2023-01-21T11:47:05.942Z,8.10
2023-01-21T11:48:05.956Z,8.12
2023-01-21T11:49:05.916Z,8.00
2023-01-21T11:50:05.923Z,8.08
2023-01-21T11:51:06.080Z,8.01
2023-01-21T11:52:05.862Z,8.01
2023-01-21T11:53:05.879Z,7.97
2023-01-21T11:54:05.920Z,7.82
2023-01-21T11:55:05.851Z,7.94
2023-01-21T11:56:05.822Z,7.91
2023-01-21T11:57:05.873Z,7.87
2023-01-21T11:58:05.827Z,7.87
2023-01-21T11:59:05.839Z,7.77
2023-01-21T12:00:05.819Z,7.87
2023-01-21T12:01:05.766Z,7.90
2023-01-21T12:02:05.801Z,7.88
2023-01-21T12:03:05.881Z,7.88
2023-01-21T12:04:05.813Z,7.87
2023-01-21T12:05:05.731Z,7.87
2023-01-21T12:06:05.723Z,7.77
2023-01-21T12:07:05.761Z,7.88
2023-01-21T12:08:05.709Z,7.85
2023-01-21T12:09:05.779Z,7.76
2023-01-21T12:10:05.668Z,7.77
2023-01-21T12:11:05.704Z,7.75
2023-01-21T12:12:05.655Z,7.77
2023-01-21T12:13:05.659Z,7.69
2023-01-21T12:14:05.648Z,7.63
2023-01-21T12:15:05.759Z,7.60
2023-01-21T12:16:05.700Z,7.60
2023-01-21T12:17:05.654Z,7.56
2023-01-21T12:18:05.567Z,7.56
2023-01-21T12:19:05.564Z,7.51
2023-01-21T12:20:05.576Z,7.56
2023-01-21T12:21:05.664Z,7.60
2023-01-21T12:22:05.521Z,7.61
2023-01-21T12:23:05.512Z,7.54
2023-01-21T12:24:05.525Z,7.53
2023-01-21T12:25:05.509Z,7.58
2023-01-21T12:26:05.508Z,7.54
2023-01-21T12:27:05.621Z,7.50
2023-01-21T12:28:05.486Z,7.51
2023-01-21T12:30:05.473Z,7.36
2023-01-21T12:31:05.622Z,7.38
2023-01-21T12:32:05.414Z,7.47
2023-01-21T12:33:05.678Z,7.36
2023-01-21T12:34:05.385Z,7.38
2023-01-21T12:35:05.409Z,7.40
2023-01-21T12:36:05.465Z,7.38
2023-01-21T12:37:05.387Z,7.33
2023-01-21T12:38:05.477Z,7.35
2023-01-21T12:39:05.415Z,7.33
2023-01-21T12:40:05.370Z,7.23
2023-01-21T12:41:05.356Z,7.24
2023-01-21T12:42:05.317Z,7.17
2023-01-21T12:43:05.285Z,7.24
2023-01-21T12:44:05.283Z,7.20
2023-01-21T12:45:05.338Z,7.15
2023-01-21T12:46:05.323Z,7.11
2023-01-21T12:47:05.292Z,7.03
2023-01-21T12:48:05.285Z,6.97
2023-01-21T12:49:05.279Z,7.05
2023-01-21T12:50:05.243Z,7.05
2023-01-21T12:51:05.486Z,7.02
2023-01-21T12:52:05.189Z,7.03
2023-01-21T12:53:05.203Z,7.02
2023-01-21T12:54:05.219Z,6.93
2023-01-21T12:55:05.254Z,6.96
2023-01-21T12:56:05.212Z,6.97
2023-01-21T12:57:05.287Z,7.00
2023-01-21T12:58:05.145Z,6.99
2023-01-21T12:59:05.107Z,7.02
2023-01-21T13:00:05.107Z,7.05
2023-01-21T13:01:05.198Z,6.97
2023-01-21T13:02:05.130Z,6.84
2023-01-21T13:03:05.138Z,6.82
2023-01-21T13:04:05.086Z,6.88
2023-01-21T13:05:05.086Z,6.85
2023-01-21T13:06:05.021Z,6.88
2023-01-21T13:07:05.020Z,6.82
2023-01-21T13:08:05.033Z,6.82
2023-01-21T13:09:05.124Z,6.85
2023-01-21T13:10:05.056Z,6.87
2023-01-21T13:11:05.046Z,6.81
2023-01-21T13:12:04.958Z,6.77
2023-01-21T13:13:04.956Z,6.74
2023-01-21T13:14:04.999Z,6.70
2023-01-21T13:15:04.959Z,6.74
2023-01-21T13:16:04.963Z,6.70
2023-01-21T13:17:04.944Z,6.67
2023-01-21T13:18:04.942Z,6.74
2023-01-21T13:19:04.934Z,6.79
2023-01-21T13:20:04.933Z,6.82
2023-01-21T13:21:04.945Z,6.72
2023-01-21T13:22:04.977Z,6.67
2023-01-21T13:23:05.037Z,6.77
2023-01-21T13:24:04.855Z,6.74
2023-01-21T13:25:04.868Z,6.67
2023-01-21T13:26:04.800Z,6.60
2023-01-21T13:27:04.859Z,6.62
2023-01-21T13:28:04.805Z,6.64
2023-01-21T13:29:04.785Z,6.54
2023-01-21T13:30:04.757Z,6.56
2023-01-21T13:31:04.916Z,6.52
2023-01-21T13:32:04.768Z,6.54
2023-01-21T13:33:04.822Z,6.56
2023-01-21T13:34:04.706Z,6.63
2023-01-21T13:35:04.752Z,6.60
2023-01-21T13:36:04.707Z,6.60
2023-01-21T13:37:04.686Z,6.64
2023-01-21T13:38:04.695Z,6.64
2023-01-21T13:39:04.740Z,6.62
2023-01-21T13:40:04.684Z,6.62
2023-01-21T13:41:04.638Z,6.57
2023-01-21T13:42:04.669Z,6.54
2023-01-21T13:43:04.677Z,6.72
2023-01-21T13:44:04.631Z,6.62
2023-01-21T13:45:04.637Z,6.62
2023-01-21T13:46:04.720Z,6.64
2023-01-21T13:47:04.571Z,6.67
2023-01-21T13:48:04.587Z,6.67
2023-01-21T13:49:04.545Z,6.62
2023-01-21T13:50:04.559Z,6.64
2023-01-21T13:51:04.795Z,6.64
2023-01-21T13:52:04.597Z,6.63
2023-01-21T13:53:04.561Z,6.64
2023-01-21T13:54:04.489Z,6.64
2023-01-21T13:55:04.539Z,6.63
2023-01-21T13:56:04.491Z,6.64
2023-01-21T13:57:04.653Z,6.51
2023-01-21T13:58:04.474Z,6.49
2023-01-21T13:59:04.456Z,6.56
2023-01-21T14:00:04.441Z,6.57
2023-01-21T14:01:04.441Z,6.51
2023-01-21T14:02:04.507Z,6.54
2023-01-21T14:03:04.449Z,6.59
2023-01-21T14:04:04.436Z,6.49
2023-01-21T14:05:04.384Z,6.48
2023-01-21T14:06:04.386Z,6.46
2023-01-21T14:07:04.454Z,6.42
2023-01-21T14:08:04.431Z,6.46
2023-01-21T14:09:04.393Z,6.38
2023-01-21T14:10:04.376Z,6.42
2023-01-21T14:11:04.354Z,6.38
2023-01-21T14:12:04.340Z,6.41
2023-01-21T14:13:04.394Z,6.33
2023-01-21T14:14:04.317Z,6.36
2023-01-21T14:15:04.373Z,6.48
2023-01-21T14:16:04.403Z,6.42
2023-01-21T14:17:04.275Z,6.30
2023-01-21T14:18:04.277Z,6.36
2023-01-21T14:19:04.260Z,6.35
2023-01-21T14:20:04.283Z,6.35
2023-01-21T14:21:04.464Z,6.39
2023-01-21T14:22:04.267Z,6.30
2023-01-21T14:23:04.233Z,6.38
2023-01-21T14:24:04.157Z,6.31
2023-01-21T14:25:04.180Z,6.39
2023-01-21T14:26:04.181Z,6.39
2023-01-21T14:27:04.181Z,6.39
2023-01-21T14:28:04.127Z,6.33
2023-01-21T14:29:04.094Z,6.35
2023-01-21T14:30:04.289Z,6.39
2023-01-21T14:31:04.167Z,6.33
2023-01-21T14:32:04.157Z,6.38
2023-01-21T14:33:04.146Z,6.38
2023-01-21T14:34:04.050Z,6.28
2023-01-21T14:35:04.224Z,6.36
2023-01-21T14:36:04.055Z,6.36
2023-01-21T14:37:04.041Z,6.36
2023-01-21T14:38:04.018Z,6.20
2023-01-21T14:39:04.088Z,6.30
2023-01-21T14:40:03.977Z,6.19
2023-01-21T14:41:03.964Z,6.20
2023-01-21T14:42:04.011Z,6.22
2023-01-21T14:43:04.012Z,6.20
2023-01-21T14:44:03.927Z,6.05
2023-01-21T14:45:04.061Z,6.11
2023-01-21T14:46:04.077Z,6.19
2023-01-21T14:47:03.968Z,6.16
2023-01-21T14:48:03.899Z,6.12
2023-01-21T14:49:03.870Z,6.12
2023-01-21T14:50:03.894Z,6.02
2023-01-21T14:51:04.067Z,6.08
2023-01-21T14:52:03.832Z,6.01
2023-01-21T14:53:03.984Z,6.02
2023-01-21T14:54:03.809Z,6.02
2023-01-21T14:55:03.864Z,5.93
2023-01-21T14:56:03.803Z,5.90
2023-01-21T14:57:18.255Z,5.87
2023-01-21T14:58:04.815Z,5.90
2023-01-21T14:59:03.745Z,5.93
2023-01-21T15:00:03.781Z,5.93
2023-01-21T15:01:03.775Z,5.87
2023-01-21T15:02:03.864Z,5.82
2023-01-21T15:03:03.791Z,5.86
2023-01-21T15:04:03.711Z,5.82
2023-01-21T15:05:03.730Z,5.79
2023-01-21T15:06:03.729Z,5.79
2023-01-21T15:07:03.838Z,5.76
2023-01-21T15:08:03.704Z,5.69
2023-01-21T15:09:03.666Z,5.73
2023-01-21T15:10:03.662Z,5.80
2023-01-21T15:11:03.686Z,5.71
2023-01-21T15:12:03.645Z,5.73
2023-01-21T15:13:03.620Z,5.73
2023-01-21T15:14:03.611Z,5.71
2023-01-21T15:15:03.626Z,5.72
2023-01-21T15:16:03.619Z,5.62
2023-01-21T15:17:03.602Z,5.69
2023-01-21T15:18:03.546Z,5.72
2023-01-21T15:19:03.541Z,5.75
2023-01-21T15:20:03.582Z,5.71
2023-01-21T15:21:03.603Z,5.71
2023-01-21T15:22:03.528Z,5.65
2023-01-21T15:23:03.490Z,5.71
2023-01-21T15:24:03.471Z,5.76
2023-01-21T15:25:03.480Z,5.66
2023-01-21T15:26:03.460Z,5.68
2023-01-21T15:27:03.511Z,5.69
2023-01-21T15:28:03.540Z,5.65
2023-01-21T15:29:03.553Z,5.61
2023-01-21T15:30:03.455Z,5.66
2023-01-21T15:31:03.608Z,5.68
2023-01-21T15:32:03.515Z,5.69
2023-01-21T15:33:03.445Z,5.66
2023-01-21T15:34:03.429Z,5.56
2023-01-21T15:35:03.369Z,5.65
2023-01-21T15:36:03.404Z,5.65
2023-01-21T15:37:03.404Z,5.65
2023-01-21T15:38:03.315Z,5.62
2023-01-21T15:39:03.425Z,5.69
2023-01-21T15:40:03.296Z,5.56
2023-01-21T15:41:03.400Z,5.69
2023-01-21T15:42:03.283Z,5.61
2023-01-21T15:43:03.307Z,5.65
2023-01-21T15:44:03.246Z,5.62
2023-01-21T15:45:03.590Z,5.66
2023-01-21T15:46:03.365Z,5.59
2023-01-21T15:47:03.270Z,5.62
2023-01-21T15:48:03.255Z,5.64
2023-01-21T15:49:03.189Z,5.57
2023-01-21T15:50:03.328Z,5.56
2023-01-21T15:51:03.333Z,5.62
2023-01-21T15:52:03.172Z,5.69
2023-01-21T15:53:03.162Z,5.54
2023-01-21T15:54:03.168Z,5.57
2023-01-21T15:55:03.236Z,5.54
2023-01-21T15:56:03.206Z,5.51
2023-01-21T15:57:03.160Z,5.48
2023-01-21T15:58:03.155Z,5.47
2023-01-21T15:59:03.114Z,5.48
2023-01-21T16:00:03.085Z,5.56
2023-01-21T16:01:03.209Z,5.46
2023-01-21T16:02:04.080Z,5.48
2023-01-21T16:03:03.141Z,5.51
2023-01-21T16:04:03.014Z,5.53
2023-01-21T16:05:03.015Z,5.48
2023-01-21T16:06:03.052Z,5.50
2023-01-21T16:07:02.986Z,5.44
2023-01-21T16:08:02.987Z,5.44
2023-01-21T16:09:03.198Z,5.47
2023-01-21T16:10:02.976Z,5.44
2023-01-21T16:11:02.934Z,5.39
2023-01-21T16:12:02.952Z,5.41
2023-01-21T16:13:02.915Z,5.44
2023-01-21T16:14:02.913Z,5.39
2023-01-21T16:15:03.010Z,5.41
2023-01-21T16:16:02.946Z,5.30
2023-01-21T16:17:02.991Z,5.32
2023-01-21T16:18:02.886Z,5.35
2023-01-21T16:19:02.854Z,5.28
2023-01-21T16:20:02.974Z,5.26
2023-01-21T16:21:03.003Z,5.26
2023-01-21T16:22:02.856Z,5.15
2023-01-21T16:23:02.863Z,5.18
2023-01-21T16:24:02.834Z,5.12
2023-01-21T16:25:02.893Z,5.04
2023-01-21T16:26:02.795Z,5.07
2023-01-21T16:27:02.874Z,5.02
2023-01-21T16:28:02.884Z,5.10
2023-01-21T16:29:02.755Z,4.96
2023-01-21T16:30:02.754Z,5.11
2023-01-21T16:31:02.916Z,5.00
2023-01-21T16:32:02.856Z,4.96
2023-01-21T16:33:02.758Z,4.93
2023-01-21T16:34:02.762Z,4.86
2023-01-21T16:35:02.698Z,4.94
2023-01-21T16:36:02.698Z,4.75
2023-01-21T16:37:02.652Z,4.77
2023-01-21T16:38:02.733Z,4.75
2023-01-21T16:39:02.660Z,4.75
2023-01-21T16:40:02.612Z,4.66
2023-01-21T16:41:02.632Z,4.67
2023-01-21T16:42:02.598Z,4.58
2023-01-21T16:43:02.601Z,4.56
2023-01-21T16:44:02.568Z,4.56
2023-01-21T16:45:03.808Z,4.44
2023-01-21T16:46:02.641Z,4.49
2023-01-21T16:47:02.586Z,4.31
2023-01-21T16:48:03.512Z,4.38
2023-01-21T16:49:02.525Z,4.32
2023-01-21T16:50:02.586Z,4.28
2023-01-21T16:51:02.607Z,4.24
2023-01-21T16:52:02.499Z,4.23
2023-01-21T16:53:02.514Z,4.16
2023-01-21T16:54:02.465Z,4.12
2023-01-21T16:55:02.450Z,4.04
2023-01-21T16:56:02.434Z,3.98
2023-01-21T16:57:02.456Z,3.98
2023-01-21T16:58:02.411Z,3.98
2023-01-21T16:59:02.495Z,3.99
2023-01-21T17:00:02.868Z,4.02
2023-01-21T17:01:03.927Z,3.99
2023-01-21T17:02:02.371Z,3.92
2023-01-21T17:03:02.522Z,3.84
2023-01-21T17:04:02.348Z,3.88
2023-01-21T17:05:02.406Z,3.81
2023-01-21T17:06:02.320Z,3.83
2023-01-21T17:07:03.908Z,3.83
2023-01-21T17:08:02.359Z,3.74
2023-01-21T17:09:02.411Z,3.65
2023-01-21T17:10:02.290Z,3.69
2023-01-21T17:11:02.269Z,3.76
2023-01-21T17:12:02.286Z,3.73
2023-01-21T17:13:02.348Z,3.70
2023-01-21T17:14:02.239Z,3.63
2023-01-21T17:15:02.302Z,3.65
2023-01-21T17:16:02.306Z,3.68
2023-01-21T17:17:02.196Z,3.68
2023-01-21T17:18:02.193Z,3.59
2023-01-21T17:19:02.217Z,3.68
2023-01-21T17:20:02.164Z,3.58
2023-01-21T17:21:02.176Z,3.62
2023-01-21T17:22:02.155Z,3.58
2023-01-21T17:23:02.139Z,3.58
2023-01-21T17:24:02.128Z,3.53
2023-01-21T17:25:02.103Z,3.50
2023-01-21T17:26:02.109Z,3.51
2023-01-21T17:27:02.125Z,3.47
2023-01-21T17:28:02.085Z,3.48
2023-01-21T17:29:02.072Z,3.44
2023-01-21T17:30:02.154Z,3.40
2023-01-21T17:31:02.125Z,3.45
2023-01-21T17:32:02.115Z,3.44
2023-01-21T17:33:02.178Z,3.40
2023-01-21T17:34:02.016Z,3.41
2023-01-21T17:35:02.038Z,3.36
2023-01-21T17:36:01.990Z,3.41
2023-01-21T17:37:02.005Z,3.32
2023-01-21T17:38:01.971Z,3.36
2023-01-21T17:39:02.036Z,3.31
2023-01-21T17:40:01.980Z,3.25
2023-01-21T17:41:01.941Z,3.25
2023-01-21T17:42:01.940Z,3.26
2023-01-21T17:43:01.945Z,3.25
2023-01-21T17:44:02.540Z,3.19
2023-01-21T17:45:01.919Z,3.19
2023-01-21T17:46:01.905Z,3.18
2023-01-21T17:47:01.865Z,3.14
2023-01-21T17:48:09.703Z,3.21
2023-01-21T17:49:03.522Z,3.11
2023-01-21T17:50:01.840Z,3.13
2023-01-21T17:51:01.906Z,3.14
2023-01-21T17:52:01.915Z,3.07
2023-01-21T17:53:01.793Z,3.03
2023-01-21T17:54:01.870Z,3.11
2023-01-21T17:55:01.815Z,3.10
2023-01-21T17:56:01.770Z,3.05
2023-01-21T17:57:01.818Z,3.10
2023-01-21T17:58:01.736Z,3.08
2023-01-21T17:59:01.937Z,3.08
2023-01-21T18:00:01.723Z,3.08
2023-01-21T18:01:01.713Z,3.04
2023-01-21T18:02:01.774Z,2.98
2023-01-21T18:03:02.910Z,2.98
2023-01-21T18:04:01.683Z,3.00
2023-01-21T18:05:01.658Z,2.97
2023-01-21T18:06:01.677Z,2.93
2023-01-21T18:07:01.676Z,2.92
2023-01-21T18:08:01.634Z,2.95
2023-01-21T18:09:01.670Z,2.98
2023-01-21T18:10:01.618Z,2.89
2023-01-21T18:11:01.595Z,2.90
2023-01-21T18:12:01.585Z,3.04
2023-01-21T18:13:01.575Z,3.05
2023-01-21T18:14:01.564Z,3.13
2023-01-21T18:15:01.564Z,3.01
2023-01-21T18:16:01.583Z,3.16
2023-01-21T18:17:01.579Z,3.13
2023-01-21T18:18:01.553Z,3.13
2023-01-21T18:19:01.547Z,3.14
2023-01-21T18:20:01.552Z,3.13
2023-01-21T18:21:01.573Z,3.19
2023-01-21T18:22:01.501Z,3.26
2023-01-21T18:23:01.508Z,3.29
2023-01-21T18:24:01.543Z,3.25
2023-01-21T18:25:01.453Z,3.32
2023-01-21T18:26:01.443Z,3.28
2023-01-21T18:27:01.486Z,3.36
2023-01-21T18:28:01.408Z,3.42
2023-01-21T18:29:01.492Z,3.44
2023-01-21T18:30:01.377Z,3.51
2023-01-21T18:31:01.528Z,3.45
2023-01-21T18:32:01.457Z,3.47
2023-01-21T18:33:01.529Z,3.50
2023-01-21T18:34:01.422Z,3.50
2023-01-21T18:35:01.464Z,3.55
2023-01-21T18:36:01.313Z,3.55
2023-01-21T18:37:01.305Z,3.58
2023-01-21T18:38:01.361Z,3.65
2023-01-21T18:39:01.359Z,3.59
2023-01-21T18:40:01.287Z,3.58
2023-01-21T18:41:01.276Z,3.74
2023-01-21T18:42:01.292Z,3.74
2023-01-21T18:43:01.283Z,3.73
2023-01-21T18:44:01.275Z,3.69
2023-01-21T18:45:01.268Z,3.73
2023-01-21T18:46:01.210Z,3.65
2023-01-21T18:47:01.190Z,3.60
2023-01-21T18:48:01.191Z,3.66
2023-01-21T18:49:01.163Z,3.70
2023-01-21T18:50:01.206Z,3.74
2023-01-21T18:51:01.258Z,3.78
2023-01-21T18:52:01.206Z,3.81
2023-01-21T18:53:01.139Z,3.83
2023-01-21T18:54:01.158Z,3.86
2023-01-21T18:55:01.128Z,3.81
2023-01-21T18:56:01.087Z,3.92
2023-01-21T18:57:01.110Z,3.86
2023-01-21T18:58:01.072Z,3.83
2023-01-21T18:59:01.082Z,3.86
2023-01-21T19:00:01.048Z,3.92
2023-01-21T19:01:08.071Z,3.83
2023-01-21T19:02:02.235Z,3.92
2023-01-21T19:03:01.029Z,3.98
2023-01-21T19:04:00.999Z,4.02
2023-01-21T19:05:00.995Z,3.94
2023-01-21T19:06:01.016Z,3.88
2023-01-21T19:07:00.972Z,4.04
2023-01-21T19:08:01.067Z,4.02
2023-01-21T19:09:01.027Z,4.02
2023-01-21T19:10:00.935Z,3.95
2023-01-21T19:11:00.956Z,4.02
2023-01-21T19:12:00.932Z,4.02
2023-01-21T19:13:00.912Z,4.02
2023-01-21T19:14:01.013Z,4.06
2023-01-21T19:15:00.912Z,3.99
2023-01-21T19:16:00.990Z,3.99
2023-01-21T19:17:00.962Z,4.04
2023-01-21T19:18:00.850Z,3.99
2023-01-21T19:19:00.868Z,4.04
2023-01-21T19:20:00.859Z,4.10
2023-01-21T19:21:00.817Z,4.13
2023-01-21T19:22:00.806Z,4.12
2023-01-21T19:23:00.943Z,4.16
2023-01-21T19:24:00.781Z,4.08
2023-01-21T19:25:00.767Z,4.12
2023-01-21T19:26:00.833Z,4.14
2023-01-21T19:27:00.778Z,4.14
2023-01-21T19:28:00.736Z,4.10
2023-01-21T19:29:01.580Z,4.13
2023-01-21T19:30:00.740Z,4.06
2023-01-21T19:31:00.833Z,4.10
2023-01-21T19:32:00.832Z,4.08
2023-01-21T19:33:00.745Z,4.13
2023-01-21T19:34:00.665Z,4.10
2023-01-21T19:35:00.718Z,4.08
2023-01-21T19:36:00.647Z,4.10
2023-01-21T19:37:00.626Z,4.10
2023-01-21T19:38:00.683Z,4.13
2023-01-21T19:39:00.647Z,4.14
2023-01-21T19:40:00.597Z,4.16
2023-01-21T19:41:00.595Z,4.16
2023-01-21T19:42:08.436Z,4.23
2023-01-21T19:43:01.673Z,4.22
2023-01-21T19:44:00.589Z,4.17
2023-01-21T19:45:00.549Z,4.17
2023-01-21T19:46:00.529Z,4.23
2023-01-21T19:47:00.567Z,4.19
2023-01-21T19:48:00.531Z,4.23
2023-01-21T19:49:00.523Z,4.23
2023-01-21T19:50:00.496Z,4.24
2023-01-21T19:51:00.568Z,4.19
2023-01-21T19:52:00.481Z,4.24
2023-01-21T19:53:00.446Z,4.19
2023-01-21T19:54:00.445Z,4.24
2023-01-21T19:55:00.457Z,4.30
2023-01-21T19:56:00.421Z,4.26
2023-01-21T19:57:00.435Z,4.13
2023-01-21T19:58:00.485Z,4.19
2023-01-21T19:59:00.410Z,4.32
2023-01-21T20:00:00.370Z,4.31
2023-01-21T20:01:00.631Z,4.30
2023-01-21T20:02:07.078Z,4.35
2023-01-21T20:03:00.397Z,4.37
2023-01-21T20:04:00.935Z,4.30
2023-01-21T20:05:00.320Z,4.30
2023-01-21T20:06:00.301Z,4.32
2023-01-21T20:07:00.430Z,4.32
2023-01-21T20:08:00.343Z,4.34
2023-01-21T20:09:00.271Z,4.34
2023-01-21T20:10:00.258Z,4.34
2023-01-21T20:11:00.275Z,4.38
2023-01-21T20:12:02.218Z,4.35
2023-01-21T20:13:00.243Z,4.41
2023-01-21T20:14:00.213Z,4.31
2023-01-21T20:15:00.235Z,4.41
2023-01-21T20:16:00.245Z,4.35
2023-01-21T20:17:00.172Z,4.40
2023-01-21T20:18:00.158Z,4.32
2023-01-21T20:19:00.198Z,4.38
2023-01-21T20:20:00.176Z,4.35
2023-01-21T20:21:00.146Z,4.34
2023-01-21T20:22:02.436Z,4.42
2023-01-21T20:23:00.132Z,4.32
2023-01-21T20:24:00.133Z,4.38
2023-01-21T20:25:00.136Z,4.37
2023-01-21T20:26:00.113Z,4.26
2023-01-21T20:27:00.166Z,4.41
2023-01-21T20:28:00.041Z,4.35
2023-01-21T20:29:00.048Z,4.24
2023-01-21T20:30:15.803Z,4.26
2023-01-21T20:31:01.117Z,4.30
2023-01-21T20:32:00.181Z,4.26
2023-01-21T20:32:59.992Z,4.31
2023-01-21T20:33:59.985Z,4.30
2023-01-21T20:34:59.998Z,4.16
2023-01-21T20:35:59.956Z,4.35
2023-01-21T20:37:00.042Z,4.30
2023-01-21T20:37:59.954Z,4.37
2023-01-21T20:38:59.936Z,4.34
2023-01-21T20:39:59.917Z,4.31
2023-01-21T20:40:59.909Z,4.30
2023-01-21T20:41:59.890Z,4.34
2023-01-21T20:42:59.917Z,4.35
2023-01-21T20:43:59.943Z,4.34
2023-01-21T20:44:59.885Z,4.30
2023-01-21T20:45:59.921Z,4.35
2023-01-21T20:46:59.880Z,4.30
2023-01-21T20:47:59.868Z,4.35
2023-01-21T20:48:59.867Z,4.34
2023-01-21T20:49:59.799Z,4.35
2023-01-21T20:50:59.869Z,4.35
2023-01-21T20:51:59.788Z,4.28
2023-01-21T20:52:59.790Z,4.31
2023-01-21T20:53:59.781Z,4.26
2023-01-21T20:54:59.803Z,4.20
2023-01-21T20:55:59.749Z,4.13
2023-01-21T20:56:59.725Z,4.26
2023-01-21T20:57:59.734Z,4.17
2023-01-21T20:58:59.698Z,4.04
2023-01-21T20:59:59.727Z,4.08
2023-01-21T21:00:59.738Z,4.10
2023-01-21T21:02:01.569Z,4.04
2023-01-21T21:02:59.655Z,4.02
2023-01-21T21:03:59.675Z,4.04
2023-01-21T21:04:59.647Z,3.95
2023-01-21T21:05:59.622Z,3.78
2023-01-21T21:06:59.766Z,3.84
2023-01-21T21:07:59.602Z,3.83
2023-01-21T21:08:59.585Z,3.68
2023-01-21T21:09:59.594Z,3.70
2023-01-21T21:10:59.577Z,3.68
2023-01-21T21:11:59.608Z,3.66
2023-01-21T21:12:59.586Z,3.60
2023-01-21T21:13:59.540Z,3.59
2023-01-21T21:14:59.639Z,3.56
2023-01-21T21:15:59.501Z,3.48
2023-01-21T21:16:59.507Z,3.47
2023-01-21T21:17:59.512Z,3.45
2023-01-21T21:18:59.660Z,3.40
2023-01-21T21:19:59.474Z,3.44
2023-01-21T21:20:59.452Z,3.32
2023-01-21T21:21:59.461Z,3.31
2023-01-21T21:22:59.422Z,3.32
2023-01-21T21:23:59.421Z,3.32
2023-01-21T21:24:59.604Z,3.31
2023-01-21T21:25:59.392Z,3.26
2023-01-21T21:26:59.403Z,3.14
2023-01-21T21:27:59.379Z,3.26
2023-01-21T21:28:59.460Z,3.19
2023-01-21T21:29:59.356Z,3.22
2023-01-21T21:30:59.427Z,3.16
2023-01-21T21:31:59.379Z,3.14
2023-01-21T21:32:59.329Z,3.07
2023-01-21T21:33:59.362Z,3.08
2023-01-21T21:34:59.309Z,3.03
2023-01-21T21:35:59.311Z,3.10
2023-01-21T21:36:59.374Z,3.04
2023-01-21T21:37:59.392Z,3.01
2023-01-21T21:38:59.254Z,3.01
2023-01-21T21:39:59.235Z,2.98
2023-01-21T21:40:59.255Z,2.79
2023-01-21T21:41:59.207Z,2.87
2023-01-21T21:42:59.243Z,2.89
2023-01-21T21:43:59.189Z,2.87
2023-01-21T21:44:59.197Z,2.87
2023-01-21T21:45:59.278Z,2.93
2023-01-21T21:46:59.213Z,2.90
2023-01-21T21:47:59.159Z,2.87
2023-01-21T21:48:59.226Z,2.86
2023-01-21T21:49:59.159Z,2.82
2023-01-21T21:50:59.154Z,2.85
2023-01-21T21:51:59.102Z,2.86
2023-01-21T21:52:59.115Z,2.83
2023-01-21T21:53:59.085Z,2.87
2023-01-21T21:54:59.113Z,2.92
2023-01-21T21:55:59.053Z,2.89
2023-01-21T21:56:59.047Z,2.90
2023-01-21T21:57:59.034Z,2.93
2023-01-21T21:58:59.023Z,2.97
2023-01-21T21:59:59.013Z,2.98
2023-01-21T22:00:59.086Z,2.98
2023-01-21T22:01:59.039Z,3.01
2023-01-21T22:02:58.993Z,3.07
2023-01-21T22:03:58.973Z,3.10
2023-01-21T22:04:58.971Z,3.07
2023-01-21T22:05:58.966Z,3.05
2023-01-21T22:06:58.969Z,3.22
2023-01-21T22:07:58.923Z,3.16
2023-01-21T22:08:58.993Z,3.18
2023-01-21T22:09:58.923Z,3.22
2023-01-21T22:10:58.893Z,3.18
2023-01-21T22:11:58.900Z,3.14
2023-01-21T22:12:58.916Z,3.18
2023-01-21T22:13:58.850Z,3.18
2023-01-21T22:14:58.861Z,3.23
2023-01-21T22:15:58.859Z,3.18
2023-01-21T22:16:58.911Z,3.22
2023-01-21T22:17:58.805Z,3.19
2023-01-21T22:18:58.852Z,3.19
2023-01-21T22:19:58.806Z,3.13
2023-01-21T22:20:58.801Z,3.14
2023-01-21T22:21:58.791Z,3.28
2023-01-21T22:22:58.818Z,3.22
2023-01-21T22:23:58.751Z,3.25
2023-01-21T22:24:58.767Z,3.14
2023-01-21T22:25:58.804Z,3.13
2023-01-21T22:26:58.718Z,3.21
2023-01-21T22:27:58.715Z,3.16
2023-01-21T22:28:58.688Z,3.18
2023-01-21T22:30:01.227Z,3.14
2023-01-21T22:30:58.791Z,3.14
2023-01-21T22:31:58.709Z,3.14
2023-01-21T22:32:58.652Z,3.16
2023-01-21T22:33:58.632Z,3.21
2023-01-21T22:34:58.644Z,3.18
2023-01-21T22:35:58.604Z,3.22
2023-01-21T22:36:58.644Z,3.22
2023-01-21T22:37:58.601Z,3.16
2023-01-21T22:38:58.596Z,3.14
2023-01-21T22:39:58.564Z,3.18
2023-01-21T22:40:58.558Z,3.11
2023-01-21T22:41:58.545Z,3.13
2023-01-21T22:42:58.571Z,3.18
2023-01-21T22:43:58.519Z,3.14
2023-01-21T22:44:58.734Z,3.08
2023-01-21T22:45:58.530Z,3.08
2023-01-21T22:46:58.480Z,3.10
2023-01-21T22:47:58.470Z,3.10
2023-01-21T22:48:58.569Z,3.08
2023-01-21T22:49:58.451Z,3.03
2023-01-21T22:50:58.546Z,2.95
2023-01-21T22:51:58.423Z,3.01
2023-01-21T22:52:58.406Z,3.00
2023-01-21T22:53:58.428Z,2.90
2023-01-21T22:54:58.439Z,2.90
2023-01-21T22:55:58.392Z,2.90
2023-01-21T22:56:58.368Z,2.90
2023-01-21T22:57:58.355Z,2.89
2023-01-21T22:58:58.339Z,2.87
2023-01-21T22:59:58.353Z,2.89
2023-01-21T23:00:58.408Z,2.83
2023-01-21T23:01:59.076Z,2.86
2023-01-21T23:02:58.303Z,2.87
2023-01-21T23:03:58.285Z,2.83
2023-01-21T23:04:58.336Z,2.86
2023-01-21T23:05:58.275Z,2.83
2023-01-21T23:06:58.314Z,2.80
2023-01-21T23:08:58.359Z,2.86
2023-01-21T23:09:58.248Z,2.85
2023-01-21T23:10:58.208Z,2.95
2023-01-21T23:11:58.196Z,2.87
2023-01-21T23:12:58.280Z,2.86
2023-01-21T23:13:58.234Z,2.87
2023-01-21T23:14:58.163Z,2.87
2023-01-21T23:15:58.222Z,2.86
2023-01-21T23:16:58.245Z,2.85
2023-01-21T23:17:58.133Z,2.86
2023-01-21T23:18:58.159Z,2.80
2023-01-21T23:19:58.107Z,2.83
2023-01-21T23:20:58.116Z,2.80
2023-01-21T23:21:58.093Z,2.87
2023-01-21T23:22:58.078Z,2.83
2023-01-21T23:23:58.071Z,2.82
2023-01-21T23:24:58.097Z,2.82
2023-01-21T23:25:58.190Z,2.74
2023-01-21T23:26:58.034Z,2.82
2023-01-21T23:27:58.018Z,2.82
2023-01-21T23:28:58.011Z,2.82
2023-01-21T23:29:58.017Z,2.80
2023-01-21T23:30:58.125Z,2.87
2023-01-21T23:31:58.144Z,2.83
2023-01-21T23:32:57.959Z,2.82
2023-01-21T23:33:57.970Z,2.83
2023-01-21T23:34:58.050Z,2.82
2023-01-21T23:35:57.929Z,2.79
2023-01-21T23:36:57.984Z,2.82
2023-01-21T23:37:57.980Z,2.82
2023-01-21T23:38:57.903Z,2.83
2023-01-21T23:39:57.892Z,2.82
2023-01-21T23:40:57.889Z,2.83
2023-01-21T23:41:57.896Z,2.85
2023-01-21T23:42:57.938Z,2.86
2023-01-21T23:43:57.843Z,2.82
2023-01-21T23:44:57.829Z,2.79
2023-01-21T23:45:57.873Z,2.87
2023-01-21T23:46:57.811Z,2.83
2023-01-21T23:47:57.822Z,2.85
2023-01-21T23:48:57.852Z,2.85
2023-01-21T23:49:57.896Z,2.86
2023-01-21T23:50:57.832Z,2.85
2023-01-21T23:51:57.749Z,2.89
2023-01-21T23:52:57.746Z,2.95
2023-01-21T23:53:57.767Z,2.85
2023-01-21T23:54:57.794Z,2.83
2023-01-21T23:55:57.715Z,2.85
2023-01-21T23:56:57.705Z,2.86
2023-01-21T23:57:57.734Z,2.87
2023-01-21T23:58:57.779Z,2.86